Time;durP1;ratioP1;P1;durP2;ratioP2;P2;SDS_P1;SDS_P2;PMS_P1;PMS_P2;Temp;Humidity;BMP_temperature;BMP_pressure;BME280_temperature;BME280_humidity;BME280_pressure;Samples;Min_cycle;Max_cycle;Signal;HPM_P1;HPM_P2
2022/08/09 00:02:32;;;;;;;9.65;6.88;;;;;;;17.81;69.55;102344.09;5048520;28;20475;-43
2022/08/09 00:04:59;;;;;;;8.73;5.38;;;;;;;17.79;69.55;102338.84;5038566;28;20550;-44
2022/08/09 00:07:46;;;;;;;12.93;5.72;;;;;;;17.73;69.76;102342.25;5048426;28;20045;-45
2022/08/09 00:10:12;;;;;;;7.45;4.93;;;;;;;17.66;70.05;102336.47;5048531;28;20051;-42
2022/08/09 00:12:43;;;;;;;9.50;5.90;;;;;;;17.64;70.11;102337.63;5037477;28;20406;-41
2022/08/09 00:15:11;;;;;;;9.70;5.60;;;;;;;17.64;70.08;102345.19;5048372;28;20376;-44
2022/08/09 00:17:40;;;;;;;11.95;5.90;;;;;;;17.62;70.16;102333.53;5048405;28;20049;-42
2022/08/09 00:20:27;;;;;;;11.98;6.03;;;;;;;17.66;70.15;102342.06;5048392;28;20094;-45
2022/08/09 00:22:57;;;;;;;11.27;5.88;;;;;;;17.66;70.10;102339.25;5048230;28;20490;-42
2022/08/09 00:25:43;;;;;;;7.95;5.22;;;;;;;17.67;70.06;102343.66;5048626;28;20040;-41
2022/08/09 00:28:18;;;;;;;9.10;5.45;;;;;;;17.63;69.96;102347.16;5057688;28;20041;-43
2022/08/09 00:30:49;;;;;;;11.27;5.50;;;;;;;17.61;70.23;102341.13;5049597;28;20049;-44
2022/08/09 00:33:16;;;;;;;9.05;5.40;;;;;;;17.61;70.22;102343.09;5041624;28;20103;-43
2022/08/09 00:35:43;;;;;;;9.32;4.65;;;;;;;17.60;70.04;102341.50;5045806;28;20041;-46
2022/08/09 00:38:11;;;;;;;9.73;5.35;;;;;;;17.58;70.00;102339.03;5048056;28;20083;-45
2022/08/09 00:40:38;;;;;;;9.98;3.95;;;;;;;17.57;70.00;102337.41;5046299;28;20037;-42
2022/08/09 00:43:22;;;;;;;7.43;4.47;;;;;;;17.66;69.77;102328.06;5047935;28;20526;-41
2022/08/09 00:46:08;;;;;;;8.75;4.40;;;;;;;17.69;69.46;102338.53;5048760;28;20071;-42
2022/08/09 00:48:36;;;;;;;13.85;5.22;;;;;;;17.71;69.46;102322.19;5048145;28;20052;-44
2022/08/09 00:51:07;;;;;;;9.80;5.18;;;;;;;17.71;69.42;102325.00;5048161;28;20095;-42
2022/08/09 00:53:38;;;;;;;9.27;4.40;;;;;;;17.70;69.30;102323.34;5046962;28;20482;-43
2022/08/09 00:56:06;;;;;;;8.18;5.05;;;;;;;17.65;69.53;102321.63;5048279;28;20055;-43
2022/08/09 00:58:35;;;;;;;9.88;4.78;;;;;;;17.58;69.67;102319.41;5048019;28;20048;-43
2022/08/09 01:01:17;;;;;;;6.82;4.45;;;;;;;17.55;69.75;102320.13;5047895;28;20123;-44
2022/08/09 01:04:17;;;;;;;9.15;4.68;;;;;;;17.49;69.86;102312.31;5043414;28;20053;-44
2022/08/09 01:07:12;;;;;;;8.25;4.13;;;;;;;17.44;70.04;102321.78;5031955;28;20059;-43
2022/08/09 01:09:52;;;;;;;9.32;5.28;;;;;;;17.41;69.91;102328.06;5050212;28;20498;-49
2022/08/09 01:12:44;;;;;;;10.80;4.03;;;;;;;17.36;69.93;102331.13;5051818;28;20084;-43
2022/08/09 01:15:15;;;;;;;6.18;4.18;;;;;;;17.38;69.71;102323.19;5051705;28;20115;-42
2022/08/09 01:17:50;;;;;;;11.75;4.50;;;;;;;17.38;69.69;102328.78;5041323;28;20556;-46
2022/08/09 01:20:23;;;;;;;9.68;3.88;;;;;;;17.34;69.74;102327.84;5030646;28;20049;-43
2022/08/09 01:23:15;;;;;;;8.13;4.43;;;;;;;17.28;69.67;102326.47;5023076;28;20056;-42
2022/08/09 01:26:29;;;;;;;6.72;3.20;;;;;;;17.29;69.05;102330.09;5019087;28;21134;-49
2022/08/09 01:28:59;;;;;;;10.40;2.90;;;;;;;17.31;68.42;102327.75;5026425;28;20490;-41
2022/08/09 01:31:29;;;;;;;6.53;2.25;;;;;;;17.28;68.06;102322.84;5044006;28;20041;-42
2022/08/09 01:34:19;;;;;;;2.85;2.28;;;;;;;17.24;67.99;102321.91;5041127;28;21037;-42
2022/08/09 01:36:48;;;;;;;7.60;2.08;;;;;;;17.24;67.66;102319.94;5052163;28;20091;-42
2022/08/09 01:39:16;;;;;;;3.72;2.65;;;;;;;17.33;67.18;102323.44;5051307;28;20044;-48
2022/08/09 01:41:44;;;;;;;9.32;3.08;;;;;;;17.31;67.11;102324.94;5046557;28;20053;-45
2022/08/09 01:44:29;;;;;;;3.53;2.08;;;;;;;17.25;66.95;102321.56;5051155;28;20049;-48
2022/08/09 01:46:58;;;;;;;3.72;2.15;;;;;;;17.18;67.02;102318.56;5051718;28;20045;-44
2022/08/09 01:49:27;;;;;;;4.80;2.08;;;;;;;17.16;67.08;102326.47;5051342;28;20398;-48
2022/08/09 01:52:09;;;;;;;3.95;1.98;;;;;;;17.22;66.69;102327.88;5051462;28;20044;-43
2022/08/09 01:54:40;;;;;;;1.90;1.70;;;;;;;17.19;66.59;102325.78;5054283;28;20053;-43
2022/08/09 01:57:11;;;;;;;3.30;2.13;;;;;;;17.11;66.81;102329.50;5051435;28;20458;-47
2022/08/09 01:59:44;;;;;;;3.75;2.10;;;;;;;17.10;66.75;102329.88;5051131;28;20622;-42
2022/08/09 02:02:25;;;;;;;4.32;1.70;;;;;;;17.03;66.67;102334.06;5051205;28;20114;-49
2022/08/09 02:05:01;;;;;;;3.95;1.67;;;;;;;17.02;66.82;102337.22;5051048;28;20141;-43
2022/08/09 02:07:48;;;;;;;4.07;1.77;;;;;;;17.07;66.24;102331.41;5050856;28;20037;-45
2022/08/09 02:10:39;;;;;;;14.48;3.38;;;;;;;17.14;65.85;102334.41;5055869;28;20433;-42
2022/08/09 02:13:13;;;;;;;3.17;1.63;;;;;;;17.10;65.93;102333.50;5050813;28;20515;-43
2022/08/09 02:15:45;;;;;;;3.78;1.63;;;;;;;17.11;65.57;102335.09;5050523;28;20045;-42
2022/08/09 02:18:22;;;;;;;2.03;1.65;;;;;;;17.11;65.31;102329.50;5050506;28;20049;-42
2022/08/09 02:21:04;;;;;;;5.75;1.50;;;;;;;17.14;65.28;102333.59;5049108;28;20075;-42
2022/08/09 02:23:36;;;;;;;2.65;1.30;;;;;;;17.15;64.98;102329.63;5045478;28;20041;-43
2022/08/09 02:26:08;;;;;;;6.13;1.73;;;;;;;17.13;64.97;102332.78;5050338;28;20059;-47
2022/08/09 02:28:56;;;;;;;4.35;1.30;;;;;;;17.12;65.01;102324.75;5047727;28;20101;-45
2022/08/09 02:31:32;;;;;;;4.35;1.45;;;;;;;17.10;64.94;102329.88;5050266;28;20077;-49
2022/08/09 02:34:10;;;;;;;2.72;1.40;;;;;;;17.06;65.02;102332.56;5040533;28;20044;-44
2022/08/09 02:36:42;;;;;;;6.00;1.40;;;;;;;17.09;64.98;102326.25;5050350;28;20087;-42
2022/08/09 02:39:17;;;;;;;2.70;1.40;;;;;;;17.10;64.89;102325.09;5048785;28;20045;-42
2022/08/09 02:41:55;;;;;;;4.57;1.35;;;;;;;17.08;64.90;102323.81;5045192;28;20041;-43
2022/08/09 02:44:29;;;;;;;2.15;1.58;;;;;;;17.01;65.10;102325.22;5050539;28;20060;-44
2022/08/09 02:47:01;;;;;;;1.95;1.10;;;;;;;16.98;65.07;102325.91;5050140;28;20068;-43
2022/08/09 02:49:35;;;;;;;5.85;1.20;;;;;;;16.93;65.29;102325.31;5050251;28;20491;-46
2022/08/09 02:52:12;;;;;;;2.17;1.38;;;;;;;16.93;65.36;102322.53;5049912;28;20491;-47
2022/08/09 02:54:40;;;;;;;1.45;1.30;;;;;;;16.91;65.28;102336.06;5049931;28;20139;-42
2022/08/09 02:57:22;;;;;;;3.50;1.13;;;;;;;16.92;65.36;102330.09;5049821;28;20053;-44
2022/08/09 02:59:52;;;;;;;4.68;1.83;;;;;;;16.97;65.29;102320.69;5048293;28;20088;-44
2022/08/09 03:02:43;;;;;;;3.97;1.70;;;;;;;16.96;65.10;102316.25;5132612;22;20063;-42
2022/08/09 03:05:26;;;;;;;3.28;1.40;;;;;;;16.96;65.12;102313.44;5049909;28;20045;-43
2022/08/09 03:07:54;;;;;;;1.55;1.40;;;;;;;16.93;65.35;102322.53;5049410;28;20427;-42
2022/08/09 03:10:23;;;;;;;2.15;1.67;;;;;;;16.94;65.37;102318.59;5049405;28;20040;-42
2022/08/09 03:12:51;;;;;;;5.20;1.88;;;;;;;16.86;65.68;102313.91;5049416;28;20048;-44
2022/08/09 03:15:20;;;;;;;2.15;1.48;;;;;;;16.80;66.08;102329.28;5049614;28;20072;-41
2022/08/09 03:17:49;;;;;;;3.40;1.45;;;;;;;16.76;66.14;102317.97;5049861;28;20048;-45
2022/08/09 03:20:26;;;;;;;2.35;1.25;;;;;;;16.75;66.21;102316.38;5049246;28;20037;-43
2022/08/09 03:22:57;;;;;;;1.80;1.38;;;;;;;16.77;66.26;102324.41;5048569;28;20156;-51
2022/08/09 03:25:42;;;;;;;2.55;1.40;;;;;;;16.74;66.19;102325.91;5047648;28;20497;-43
2022/08/09 03:28:29;;;;;;;2.97;1.70;;;;;;;16.70;66.29;102318.56;5049125;28;20049;-42
2022/08/09 03:30:57;;;;;;;3.15;1.25;;;;;;;16.72;66.39;102321.84;5048806;28;20123;-42
2022/08/09 03:33:25;;;;;;;3.85;1.40;;;;;;;16.74;66.25;102322.28;5048763;28;20138;-45
2022/08/09 03:36:12;;;;;;;7.60;2.55;;;;;;;16.76;66.22;102333.97;5047360;28;20473;-43
2022/08/09 03:38:43;;;;;;;2.17;1.52;;;;;;;16.75;66.14;102323.94;5033137;28;20044;-48
2022/08/09 03:41:14;;;;;;;3.35;1.77;;;;;;;16.70;66.36;102315.78;5025264;28;20230;-43
2022/08/09 03:43:46;;;;;;;3.38;1.52;;;;;;;16.69;66.42;102319.72;5025843;28;20047;-43
2022/08/09 03:46:33;;;;;;;1.42;1.17;;;;;;;16.67;66.48;102310.88;5023620;28;20045;-49
2022/08/09 03:49:02;;;;;;;3.15;1.65;;;;;;;16.69;66.50;102314.94;5027407;28;20124;-42
2022/08/09 03:51:39;;;;;;;7.60;1.75;;;;;;;16.67;66.46;102320.09;5022702;28;20041;-50
2022/08/09 03:54:28;;;;;;;2.45;1.38;;;;;;;16.63;66.55;102312.72;5053321;28;20075;-49
2022/08/09 03:57:00;;;;;;;3.22;1.58;;;;;;;16.61;66.77;102315.06;5049017;28;20106;-49
2022/08/09 03:59:38;;;;;;;3.05;1.45;;;;;;;16.58;66.72;102304.56;5042945;28;20049;-48
2022/08/09 04:02:24;;;;;;;2.25;1.42;;;;;;;16.60;66.65;102305.84;5048861;28;20059;-43
2022/08/09 04:04:59;;;;;;;1.40;1.30;;;;;;;16.59;66.73;102300.63;5048913;28;20076;-41
2022/08/09 04:07:31;;;;;;;4.90;1.77;;;;;;;16.57;66.65;102300.16;5048882;28;20060;-44
2022/08/09 04:10:21;;;;;;;2.00;1.75;;;;;;;16.58;66.56;102304.56;5053695;28;20044;-51
2022/08/09 04:12:58;;;;;;;2.97;1.40;;;;;;;16.49;66.87;102295.44;5048746;28;20071;-43
2022/08/09 04:15:29;;;;;;;2.58;1.40;;;;;;;16.43;67.09;102290.09;5048622;28;20124;-42
2022/08/09 04:18:16;;;;;;;1.98;1.60;;;;;;;16.46;66.65;102291.38;5048473;28;20037;-45
2022/08/09 04:20:46;;;;;;;4.10;1.77;;;;;;;16.42;67.10;102294.03;5048539;28;20045;-42
2022/08/09 04:23:13;;;;;;;4.90;2.08;;;;;;;16.43;67.25;102297.66;5048539;28;20111;-48
2022/08/09 04:25:44;;;;;;;3.22;1.60;;;;;;;16.48;67.08;102288.22;5049188;28;20114;-44
2022/08/09 04:28:20;;;;;;;2.88;1.63;;;;;;;16.50;67.17;102297.88;5048802;28;20071;-42
2022/08/09 04:31:05;;;;;;;2.15;1.83;;;;;;;16.47;67.11;102300.59;5048852;28;20064;-45
2022/08/09 04:33:37;;;;;;;3.58;2.03;;;;;;;16.37;67.45;102310.22;5048049;28;20434;-46
2022/08/09 04:36:21;;;;;;;3.33;1.83;;;;;;;16.29;67.86;102306.38;5036998;28;20064;-43
2022/08/09 04:38:49;;;;;;;5.28;2.67;;;;;;;16.25;67.97;102313.00;5048149;28;20048;-42
2022/08/09 04:41:17;;;;;;;3.60;2.00;;;;;;;16.20;67.98;102316.00;5048011;28;20048;-42
2022/08/09 04:43:44;;;;;;;4.60;1.88;;;;;;;16.17;68.15;102309.13;5054036;28;20056;-48
2022/08/09 04:46:30;;;;;;;1.70;1.60;;;;;;;16.14;68.25;102318.22;5050870;28;20036;-50
2022/08/09 04:49:17;;;;;;;1.70;1.60;;;;;;;16.10;68.37;102320.03;5052061;28;20040;-43
2022/08/09 04:52:04;;;;;;;1.98;1.67;;;;;;;16.07;68.41;102317.94;5037353;28;20045;-43
2022/08/09 04:54:33;;;;;;;2.47;1.73;;;;;;;16.06;68.75;102315.50;5052024;28;20128;-47
2022/08/09 04:56:59;;;;;;;3.38;2.40;;;;;;;16.07;68.82;102317.13;5052423;28;20049;-42
2022/08/09 04:59:30;;;;;;;3.75;2.03;;;;;;;16.05;68.96;102331.44;5052635;28;20052;-43
2022/08/09 05:01:57;;;;;;;2.83;2.03;;;;;;;16.04;69.08;102321.44;5051928;28;20052;-43
2022/08/09 05:04:28;;;;;;;3.85;1.83;;;;;;;16.04;69.14;102318.66;5052095;28;20119;-41
2022/08/09 05:06:57;;;;;;;5.07;3.17;;;;;;;16.11;69.13;102323.66;5052364;28;20041;-44
2022/08/09 05:09:24;;;;;;;2.42;1.98;;;;;;;16.09;69.32;102328.78;5051939;28;20036;-42
2022/08/09 05:12:09;;;;;;;3.53;1.77;;;;;;;16.04;69.64;102329.81;5051861;28;20119;-43
2022/08/09 05:14:38;;;;;;;4.70;2.55;;;;;;;16.01;69.98;102330.50;5051850;28;20123;-44
2022/08/09 05:17:07;;;;;;;10.43;2.70;;;;;;;16.04;69.83;102335.41;5051926;28;20045;-44
2022/08/09 05:19:53;;;;;;;4.70;1.90;;;;;;;16.10;69.82;102338.78;5051643;28;20394;-44
2022/08/09 05:22:24;;;;;;;2.75;1.92;;;;;;;16.10;69.79;102330.41;5051926;28;20041;-44
2022/08/09 05:25:03;;;;;;;8.05;1.60;;;;;;;16.08;70.17;102341.09;5051582;28;20051;-43
2022/08/09 05:27:30;;;;;;;3.17;1.90;;;;;;;16.09;69.93;102338.00;5051563;28;20037;-45
2022/08/09 05:29:57;;;;;;;2.65;1.70;;;;;;;16.11;70.02;102335.66;5033661;28;20475;-45
2022/08/09 05:32:25;;;;;;;3.35;2.47;;;;;;;16.17;70.31;102339.06;5051283;28;20039;-42
2022/08/09 05:34:55;;;;;;;3.58;2.20;;;;;;;16.18;70.19;102344.28;5046955;28;20136;-43
2022/08/09 05:37:22;;;;;;;2.88;1.83;;;;;;;16.21;70.45;102340.81;5051359;28;20128;-42
2022/08/09 05:39:51;;;;;;;5.22;2.40;;;;;;;16.26;70.27;102343.38;5051422;28;20049;-42
2022/08/09 05:42:19;;;;;;;3.38;1.73;;;;;;;16.29;70.24;102348.28;5051054;28;20522;-42
2022/08/09 05:44:52;;;;;;;6.35;2.03;;;;;;;16.27;70.61;102356.22;5051364;28;20076;-43
2022/08/09 05:47:20;;;;;;;;;;;;;;;16.28;70.29;102357.81;5031926;28;20076;-47
2022/08/09 05:49:49;;;;;;;4.28;2.10;;;;;;;16.32;69.99;102358.78;5050902;28;20344;-41
2022/08/09 05:52:37;;;;;;;4.18;2.13;;;;;;;16.35;70.05;102363.69;5039714;28;20434;-41
2022/08/09 05:55:06;;;;;;;3.38;2.22;;;;;;;16.33;70.15;102363.22;5050120;28;20040;-43
2022/08/09 05:57:35;;;;;;;6.32;3.25;;;;;;;16.34;70.31;102359.25;5044544;28;20048;-43
2022/08/09 06:00:22;;;;;;;4.40;2.75;;;;;;;16.33;70.31;102357.63;5028313;28;20052;-45
2022/08/09 06:02:49;;;;;;;2.47;2.28;;;;;;;16.35;70.46;102362.88;5017130;28;20133;-45
2022/08/09 06:05:28;;;;;;;3.17;2.45;;;;;;;16.35;70.78;102357.28;5026029;28;21027;-50
2022/08/09 06:08:16;;;;;;;3.75;2.42;;;;;;;16.35;70.74;102362.88;5022940;28;20041;-47
2022/08/09 06:10:49;;;;;;;4.60;1.98;;;;;;;16.38;70.60;102363.00;5044923;28;20032;-48
2022/08/09 06:13:17;;;;;;;4.40;2.60;;;;;;;16.48;70.60;102367.31;5038740;28;20045;-41
2022/08/09 06:15:50;;;;;;;8.90;3.78;;;;;;;16.53;70.66;102369.91;5057085;28;20095;-41
2022/08/09 06:18:22;;;;;;;4.18;2.80;;;;;;;16.59;70.41;102370.53;5050643;28;20049;-41
2022/08/09 06:20:55;;;;;;;6.82;2.63;;;;;;;16.65;70.26;102371.94;5050397;28;20044;-43
2022/08/09 06:23:30;;;;;;;6.03;2.85;;;;;;;16.67;70.27;102372.41;5050415;28;20479;-43
2022/08/09 06:26:19;;;;;;;4.75;2.00;;;;;;;16.74;70.19;102369.84;5048886;28;20498;-42
2022/08/09 06:28:55;;;;;;;5.85;3.05;;;;;;;16.81;70.05;102386.88;5046677;28;20095;-43
2022/08/09 06:31:27;;;;;;;6.13;2.05;;;;;;;16.80;70.11;102382.44;5049905;28;20037;-43
2022/08/09 06:34:05;;;;;;;4.15;2.10;;;;;;;16.86;70.11;102389.44;5050103;28;20099;-45
2022/08/09 06:36:32;;;;;;;3.40;1.88;;;;;;;16.90;70.01;102388.41;5050421;28;20045;-43
2022/08/09 06:38:59;;;;;;;6.78;1.80;;;;;;;16.97;69.92;102373.84;5050032;28;20044;-42
2022/08/09 06:41:34;;;;;;;3.28;2.10;;;;;;;17.02;69.82;102382.00;5050656;28;20041;-44
2022/08/09 06:44:21;;;;;;;11.27;2.45;;;;;;;17.05;69.93;102375.69;5050014;28;20087;-42
2022/08/09 06:46:51;;;;;;;4.65;2.15;;;;;;;17.07;69.78;102390.16;5050318;28;20076;-43
2022/08/09 06:49:21;;;;;;;5.30;2.35;;;;;;;17.13;69.88;102393.56;5050233;28;20033;-43
2022/08/09 06:52:08;;;;;;;2.92;1.90;;;;;;;17.19;69.71;102386.53;5049925;28;20486;-42
2022/08/09 06:54:37;;;;;;;4.95;2.33;;;;;;;17.24;69.60;102395.50;5049789;28;20052;-41
2022/08/09 06:57:06;;;;;;;4.53;2.22;;;;;;;17.29;69.63;102386.88;5049693;28;20367;-44
2022/08/09 06:59:33;;;;;;;5.10;2.10;;;;;;;17.34;69.38;102388.66;5050430;28;20494;-43
2022/08/09 07:02:20;;;;;;;7.35;3.00;;;;;;;17.39;69.32;102389.22;5049539;28;20080;-43
2022/08/09 07:04:55;;;;;;;5.72;2.40;;;;;;;17.42;69.13;102391.28;5048026;28;20120;-43
2022/08/09 07:07:21;;;;;;;5.20;1.80;;;;;;;17.48;69.17;102389.06;5031927;28;20127;-43
2022/08/09 07:10:08;;;;;;;3.88;1.83;;;;;;;17.51;69.01;102393.97;5049482;28;20037;-48
2022/08/09 07:12:55;;;;;;;3.28;1.50;;;;;;;17.57;68.77;102393.44;5049928;28;20076;-45
2022/08/09 07:15:23;;;;;;;5.20;1.75;;;;;;;17.66;68.92;102395.28;5050601;28;20041;-45
2022/08/09 07:18:10;;;;;;;8.73;2.58;;;;;;;17.67;68.70;102386.50;5050158;28;20057;-47
2022/08/09 07:20:39;;;;;;;2.65;1.75;;;;;;;17.68;68.64;102381.72;5049578;28;20037;-44
2022/08/09 07:23:11;;;;;;;5.75;1.92;;;;;;;17.78;68.65;102378.44;5049424;28;20398;-47
2022/08/09 07:25:46;;;;;;;5.97;1.80;;;;;;;17.86;68.58;102383.06;5049782;28;20077;-45
2022/08/09 07:28:18;;;;;;;3.72;2.78;;;;;;;17.96;68.53;102393.78;5049372;28;20045;-45
2022/08/09 07:30:53;;;;;;;6.38;2.35;;;;;;;18.08;68.41;102388.13;5031541;28;20045;-46
2022/08/09 07:33:20;;;;;;;4.88;2.65;;;;;;;18.16;68.19;102381.56;5049980;28;20040;-41
2022/08/09 07:35:48;;;;;;;5.28;2.05;;;;;;;18.23;67.99;102393.78;5049050;28;20045;-45
2022/08/09 07:38:20;;;;;;;4.40;1.55;;;;;;;18.30;67.65;102387.56;5049343;28;20068;-43
2022/08/09 07:40:51;;;;;;;3.25;1.52;;;;;;;18.41;67.46;102394.28;5049212;28;20487;-43
2022/08/09 07:43:36;;;;;;;5.40;1.88;;;;;;;18.51;67.19;102396.59;5049484;28;20033;-46
2022/08/09 07:46:16;;;;;;;7.65;2.22;;;;;;;18.63;67.19;102385.31;5048957;28;20457;-46
2022/08/09 07:48:45;;;;;;;7.00;2.40;;;;;;;18.72;67.27;102387.91;5049060;28;20048;-44
2022/08/09 07:51:24;;;;;;;3.78;1.73;;;;;;;18.82;67.17;102393.81;5049353;28;20143;-43
2022/08/09 07:54:11;;;;;;;2.28;1.45;;;;;;;18.95;67.44;102396.56;5048720;28;20458;-44
2022/08/09 07:56:40;;;;;;;4.18;1.60;;;;;;;19.04;67.79;102394.34;5048910;28;20136;-42
2022/08/09 07:59:17;;;;;;;8.90;1.92;;;;;;;19.17;67.75;102396.69;5049094;28;20059;-43
2022/08/09 08:01:59;;;;;;;2.40;1.30;;;;;;;19.37;67.87;102403.22;5048769;28;20056;-44
2022/08/09 08:04:26;;;;;;;2.65;1.67;;;;;;;19.55;67.42;102398.03;5047115;28;20049;-46
2022/08/09 08:06:58;;;;;;;9.52;3.35;;;;;;;19.63;67.23;102395.03;5049098;28;20135;-43
2022/08/09 08:09:35;;;;;;;7.78;1.95;;;;;;;19.80;66.99;102388.97;5049192;28;20106;-43
2022/08/09 08:12:18;;;;;;;3.38;1.40;;;;;;;20.08;66.63;102400.03;5035116;28;20041;-42
2022/08/09 08:14:56;;;;;;;2.92;1.90;;;;;;;20.41;65.97;102391.88;5048718;28;20056;-40
2022/08/09 08:17:25;;;;;;;7.05;1.77;;;;;;;20.70;64.96;102398.88;5043673;28;20514;-42
2022/08/09 08:20:11;;;;;;;3.05;1.50;;;;;;;21.04;64.91;102403.50;5022090;28;20053;-46
2022/08/09 08:22:39;;;;;;;5.32;1.23;;;;;;;21.47;63.81;102392.94;5023880;28;20042;-49
2022/08/09 08:25:08;;;;;;;4.35;1.50;;;;;;;22.09;61.77;102394.22;5021561;28;20073;-42
2022/08/09 08:27:40;;;;;;;8.02;2.25;;;;;;;22.73;59.98;102393.75;5033706;28;20033;-41
2022/08/09 08:30:10;;;;;;;3.85;1.13;;;;;;;23.42;58.09;102396.78;5051559;28;20048;-41
2022/08/09 08:32:37;;;;;;;3.72;1.02;;;;;;;24.17;56.39;102398.84;5048453;28;20040;-41
2022/08/09 08:35:20;;;;;;;2.63;1.08;;;;;;;25.09;54.26;102404.72;5048440;28;20096;-42
2022/08/09 08:37:49;;;;;;;6.68;2.03;;;;;;;25.79;52.21;102407.47;5048406;28;20144;-41
2022/08/09 08:40:37;;;;;;;7.50;1.95;;;;;;;26.34;50.30;102412.56;5049957;28;20444;-43
2022/08/09 08:43:04;;;;;;;3.17;1.10;;;;;;;26.90;48.43;102402.91;5048210;28;20037;-41
2022/08/09 08:45:49;;;;;;;3.20;0.90;;;;;;;27.50;46.99;102397.50;5052620;28;20660;-40
2022/08/09 08:48:21;;;;;;;2.25;0.80;;;;;;;27.93;45.90;102400.69;5049317;28;20070;-42
2022/08/09 08:50:56;;;;;;;3.35;1.10;;;;;;;28.44;43.99;102407.34;5048340;28;20487;-41
2022/08/09 08:53:24;;;;;;;2.80;1.02;;;;;;;28.88;42.92;102401.44;5048226;28;20041;-41
2022/08/09 08:56:03;;;;;;;2.30;0.80;;;;;;;29.35;42.22;102402.28;5048191;28;20041;-40
2022/08/09 08:58:31;;;;;;;4.35;0.98;;;;;;;29.32;41.33;102398.25;5048775;28;20406;-41
2022/08/09 09:01:02;;;;;;;6.13;1.17;;;;;;;29.39;40.94;102400.16;5047808;28;20089;-43
2022/08/09 09:03:48;;;;;;;5.50;1.27;;;;;;;29.73;40.25;102397.09;5048184;28;20503;-42
2022/08/09 09:06:17;;;;;;;4.03;1.20;;;;;;;29.98;39.39;102392.50;5047895;28;20168;-41
2022/08/09 09:08:45;;;;;;;2.38;1.10;;;;;;;30.08;39.12;102394.31;5047623;28;20055;-41
2022/08/09 09:11:19;;;;;;;4.85;0.85;;;;;;;30.36;38.70;102383.53;5048418;28;20051;-40
2022/08/09 09:13:51;;;;;;;1.88;0.90;;;;;;;30.53;38.21;102388.84;5047902;28;20061;-46
2022/08/09 09:16:31;;;;;;;2.30;0.90;;;;;;;30.49;38.02;102379.56;5048415;28;20037;-41
2022/08/09 09:19:06;;;;;;;1.98;0.73;;;;;;;30.49;37.62;102388.13;5047696;28;20526;-40
2022/08/09 09:21:59;;;;;;;3.63;1.00;;;;;;;30.61;37.55;102378.84;5047325;28;20159;-45
2022/08/09 09:24:36;;;;;;;1.15;0.40;;;;;;;30.71;37.10;102377.00;5047794;28;20048;-45
2022/08/09 09:27:06;;;;;;;3.92;0.70;;;;;;;30.89;36.89;102373.69;5030175;28;20052;-49
2022/08/09 09:29:39;;;;;;;5.40;0.77;;;;;;;31.06;36.56;102381.03;5048311;28;20091;-43
2022/08/09 09:32:28;;;;;;;3.28;0.85;;;;;;;31.31;35.81;102381.22;5051957;28;20123;-50
2022/08/09 09:35:01;;;;;;;2.67;0.63;;;;;;;31.41;35.15;102380.09;5043009;28;20036;-44
2022/08/09 09:37:29;;;;;;;2.63;0.80;;;;;;;31.58;34.62;102378.06;5050676;28;20045;-43
2022/08/09 09:39:58;;;;;;;3.58;1.00;;;;;;;31.51;33.86;102379.03;5051600;28;20072;-50
2022/08/09 09:42:28;;;;;;;1.58;0.55;;;;;;;31.44;33.69;102376.34;5051543;28;20064;-44
2022/08/09 09:45:02;;;;;;;2.05;0.70;;;;;;;31.48;33.94;102382.03;5051036;28;20489;-45
2022/08/09 09:47:29;;;;;;;1.52;0.52;;;;;;;31.67;33.55;102387.59;5051298;28;20139;-44
2022/08/09 09:49:59;;;;;;;1.08;0.50;;;;;;;31.78;32.56;102379.50;5051529;28;20446;-42
2022/08/09 09:52:51;;;;;;;2.38;0.73;;;;;;;31.84;32.54;102376.88;5051223;28;20056;-43
2022/08/09 09:55:21;;;;;;;1.88;0.55;;;;;;;31.93;31.91;102374.94;5050937;28;20045;-50
2022/08/09 09:58:03;;;;;;;2.35;0.55;;;;;;;32.11;31.18;102371.59;5051312;28;20059;-42
2022/08/09 10:00:47;;;;;;;1.42;0.70;;;;;;;32.26;30.73;102377.69;5050436;28;20098;-41
2022/08/09 10:03:44;;;;;;;4.18;0.60;;;;;;;32.14;31.24;102376.44;5050943;28;20051;-40
2022/08/09 10:06:27;;;;;;;2.72;0.47;;;;;;;32.15;31.03;102371.47;5051498;28;20073;-40
2022/08/09 10:09:03;;;;;;;1.83;0.57;;;;;;;32.29;31.02;102368.19;5050824;28;20560;-44
2022/08/09 10:12:00;;;;;;;2.55;0.57;;;;;;;32.12;31.06;102360.91;5050753;28;20044;-41
2022/08/09 10:14:47;;;;;;;1.33;0.60;;;;;;;32.22;30.87;102365.53;5050709;28;20053;-41
2022/08/09 10:17:18;;;;;;;2.08;0.32;;;;;;;32.27;30.72;102364.97;5050684;28;20781;-40
2022/08/09 10:20:18;;;;;;;2.55;0.63;;;;;;;32.30;30.77;102366.94;5050790;28;20041;-42
2022/08/09 10:23:23;;;;;;;2.88;0.60;;;;;;;32.35;31.39;102363.50;5050803;28;20045;-40
2022/08/09 10:25:54;;;;;;;2.40;0.70;;;;;;;32.48;31.00;102367.16;5050726;28;20049;-49
2022/08/09 10:28:37;;;;;;;0.75;0.50;;;;;;;32.55;30.33;102369.84;5050547;28;20056;-49
2022/08/09 10:31:07;;;;;;;1.17;0.40;;;;;;;32.43;30.11;102365.66;5050870;28;20041;-49
2022/08/09 10:33:53;;;;;;;3.22;0.75;;;;;;;32.17;30.54;102363.25;5050406;28;20059;-46
2022/08/09 10:36:41;;;;;;;2.70;1.10;;;;;;;31.88;30.50;102369.78;5050834;28;20512;-45
2022/08/09 10:39:09;;;;;;;1.63;0.60;;;;;;;31.78;30.67;102370.91;5021598;28;20729;-44
2022/08/09 10:41:43;;;;;;;3.17;0.80;;;;;;;31.38;31.33;102365.88;5028503;28;20084;-49
2022/08/09 10:44:11;;;;;;;2.03;0.80;;;;;;;30.95;31.36;102369.09;5021669;28;20053;-46
2022/08/09 10:46:45;;;;;;;2.88;0.68;;;;;;;30.82;32.15;102371.03;5022498;28;20431;-42
2022/08/09 10:49:45;;;;;;;4.80;0.85;;;;;;;30.85;32.80;102372.97;5033598;28;20410;-43
2022/08/09 10:52:50;;;;;;;2.95;1.27;;;;;;;30.77;33.13;102358.84;5057439;28;20048;-44
2022/08/09 10:55:27;;;;;;;1.40;0.77;;;;;;;30.60;33.47;102365.81;5052189;28;20033;-41
2022/08/09 10:58:02;;;;;;;2.53;0.60;;;;;;;30.31;34.16;102359.13;5050353;28;20056;-44
2022/08/09 11:00:35;;;;;;;6.50;1.20;;;;;;;30.04;34.02;102352.81;5049961;28;20041;-41
2022/08/09 11:03:20;;;;;;;1.30;0.60;;;;;;;29.44;35.53;102343.38;5049497;28;20144;-42
2022/08/09 11:06:22;;;;;;;2.72;0.70;;;;;;;28.86;36.46;102347.66;5035101;28;20076;-45
2022/08/09 11:08:50;;;;;;;0.95;0.85;;;;;;;28.58;36.52;102347.31;5063724;28;20075;-43
2022/08/09 11:11:20;;;;;;;3.90;0.95;;;;;;;28.31;37.16;102347.28;5049768;28;20044;-42
2022/08/09 11:14:26;;;;;;;2.72;0.80;;;;;;;28.10;37.60;102345.56;5049774;28;20075;-42
2022/08/09 11:16:54;;;;;;;5.55;1.05;;;;;;;27.84;37.53;102348.31;5049549;28;20045;-47
2022/08/09 11:20:08;;;;;;;2.15;0.90;;;;;;;27.34;38.30;102343.19;5045463;28;20050;-44
2022/08/09 11:22:49;;;;;;;1.83;0.65;;;;;;;26.85;39.33;102347.28;4938206;29;20082;-46
2022/08/09 11:25:35;;;;;;;2.47;0.70;;;;;;;26.57;39.76;102341.81;4949036;29;20043;-42
2022/08/09 11:28:36;;;;;;;3.03;0.95;;;;;;;26.43;40.12;102341.88;5036957;28;20172;-43
2022/08/09 11:31:44;;;;;;;2.97;0.80;;;;;;;26.25;40.20;102347.69;5049570;28;20049;-44
2022/08/09 11:34:55;;;;;;;3.22;0.90;;;;;;;26.06;41.27;102333.16;5049854;28;20540;-42
2022/08/09 11:37:28;;;;;;;2.30;0.60;;;;;;;25.97;41.25;102331.56;4987021;28;20124;-44
2022/08/09 11:40:10;;;;;;;2.75;0.60;;;;;;;25.90;40.54;102334.44;4987396;28;20182;-40
2022/08/09 11:42:47;;;;;;;2.90;0.65;;;;;;;25.75;40.85;102341.41;5025563;28;20061;-41
2022/08/09 11:45:50;;;;;;;4.72;0.90;;;;;;;25.69;41.05;102337.38;5036432;28;20048;-40
2022/08/09 11:48:20;;;;;;;2.38;1.08;;;;;;;25.69;41.30;102343.06;5019212;28;20414;-43
2022/08/09 11:50:59;;;;;;;1.98;0.55;;;;;;;25.78;41.13;102345.47;5048967;28;20139;-42
2022/08/09 11:53:46;;;;;;;1.60;0.47;;;;;;;25.77;41.26;102341.81;5048183;28;20045;-45
2022/08/09 11:56:30;;;;;;;2.95;0.80;;;;;;;25.75;41.11;102335.75;5048432;28;20509;-49
2022/08/09 11:59:27;;;;;;;1.63;0.52;;;;;;;25.65;41.64;102339.44;5048747;28;20041;-45
2022/08/09 12:01:59;;;;;;;0.90;0.50;;;;;;;25.61;42.29;102338.63;5048318;28;20083;-44
2022/08/09 12:04:49;;;;;;;3.13;0.93;;;;;;;25.59;43.10;102346.75;5049360;28;20375;-41
2022/08/09 12:07:28;;;;;;;3.65;0.88;;;;;;;25.44;43.08;102339.47;5048827;28;20143;-43
2022/08/09 12:10:09;;;;;;;3.80;0.73;;;;;;;25.18;43.16;102337.06;5048469;28;20041;-42